createdAt,value
2022-12-16T00:01:24.236Z,45.58
2022-12-16T00:03:52.804Z,44.92
2022-12-16T00:06:23.444Z,48.10
2022-12-16T00:08:50.461Z,43.17
2022-12-16T00:11:19.767Z,49.35
2022-12-16T00:13:47.831Z,48.78
2022-12-16T00:16:17.123Z,47.80
2022-12-16T00:18:44.650Z,53.22
2022-12-16T00:21:12.167Z,46.50
2022-12-16T00:23:41.593Z,50.65
2022-12-16T00:26:09.077Z,54.78
2022-12-16T00:28:35.940Z,53.92
2022-12-16T00:31:02.890Z,47.85
2022-12-16T00:33:30.699Z,50.47
2022-12-16T00:35:57.893Z,49.13
2022-12-16T00:38:26.924Z,48.47
2022-12-16T00:40:53.734Z,59.00
2022-12-16T00:43:20.908Z,48.63
2022-12-16T00:45:48.580Z,54.33
2022-12-16T00:48:15.660Z,50.53
2022-12-16T00:50:49.050Z,58.70
2022-12-16T00:53:15.816Z,52.28
2022-12-16T00:55:42.695Z,53.05
2022-12-16T00:58:09.477Z,42.22
2022-12-16T01:00:36.403Z,47.80
2022-12-16T01:03:03.352Z,47.83
2022-12-16T01:05:30.208Z,49.08
2022-12-16T01:07:57.214Z,55.55
2022-12-16T01:10:25.298Z,53.67
2022-12-16T01:12:52.434Z,54.65
2022-12-16T01:15:19.662Z,44.83
2022-12-16T01:17:47.040Z,47.22
2022-12-16T01:20:14.296Z,54.38
2022-12-16T01:22:41.698Z,57.08
2022-12-16T01:25:11.311Z,43.95
2022-12-16T01:27:38.084Z,55.30
2022-12-16T01:30:05.459Z,49.35
2022-12-16T01:32:32.363Z,47.53
2022-12-16T01:34:59.180Z,57.10
2022-12-16T01:37:26.078Z,49.63
2022-12-16T01:39:52.814Z,46.55
2022-12-16T01:42:23.476Z,48.90
2022-12-16T01:44:52.173Z,53.90
2022-12-16T01:47:30.588Z,49.40
2022-12-16T01:50:07.498Z,54.47
2022-12-16T01:52:40.221Z,42.95
2022-12-16T01:55:12.888Z,55.70
2022-12-16T01:57:51.771Z,49.17
2022-12-16T02:00:22.406Z,56.47
2022-12-16T02:02:51.288Z,51.50
2022-12-16T02:05:21.306Z,52.33
2022-12-16T02:08:07.102Z,55.20
2022-12-16T02:11:06.073Z,47.58
2022-12-16T02:13:51.545Z,45.00
2022-12-16T02:16:32.161Z,47.28
2022-12-16T02:18:58.850Z,49.95
2022-12-16T02:21:28.567Z,38.50
2022-12-16T02:24:10.292Z,56.70
2022-12-16T02:26:55.753Z,49.38
2022-12-16T02:29:53.443Z,44.75
2022-12-16T02:32:41.948Z,54.45
2022-12-16T02:35:36.094Z,46.15
2022-12-16T02:38:22.364Z,50.63
2022-12-16T02:41:02.571Z,53.05
2022-12-16T02:43:48.660Z,51.85
2022-12-16T02:46:16.198Z,48.95
2022-12-16T02:48:42.954Z,49.47
2022-12-16T02:51:10.008Z,47.53
2022-12-16T02:53:39.405Z,48.55
2022-12-16T02:56:25.138Z,52.28
2022-12-16T02:59:16.436Z,46.35
2022-12-16T03:02:06.036Z,52.97
2022-12-16T03:05:16.752Z,48.15
2022-12-16T03:07:45.009Z,46.53
2022-12-16T03:10:17.340Z,50.35
2022-12-16T03:12:46.046Z,46.63
2022-12-16T03:15:17.410Z,47.97
2022-12-16T03:17:47.064Z,46.67
2022-12-16T03:20:28.162Z,44.22
2022-12-16T03:22:59.348Z,50.13
2022-12-16T03:25:28.219Z,47.17
2022-12-16T03:28:28.030Z,48.10
2022-12-16T03:31:09.049Z,54.85
2022-12-16T03:33:42.765Z,50.90
2022-12-16T03:36:22.606Z,45.45
2022-12-16T03:38:51.215Z,46.90
2022-12-16T03:41:19.560Z,51.72
2022-12-16T03:43:46.713Z,48.35
2022-12-16T03:46:14.705Z,50.58
2022-12-16T03:48:50.095Z,56.40
2022-12-16T03:51:17.782Z,48.05
2022-12-16T03:53:45.343Z,55.63
2022-12-16T03:56:12.788Z,52.35
2022-12-16T03:58:42.833Z,44.35
2022-12-16T04:01:10.477Z,41.00
2022-12-16T04:03:38.106Z,47.50
2022-12-16T04:06:05.776Z,40.53
2022-12-16T04:08:32.592Z,39.55
2022-12-16T04:11:18.056Z,38.75
2022-12-16T04:14:03.593Z,42.60
2022-12-16T04:16:49.398Z,44.25
2022-12-16T04:19:44.579Z,39.80
2022-12-16T04:22:37.320Z,43.50
2022-12-16T04:25:12.196Z,43.13
2022-12-16T04:27:39.024Z,36.10
2022-12-16T04:30:21.967Z,35.13
2022-12-16T04:33:17.955Z,39.75
2022-12-16T04:36:03.872Z,39.47
2022-12-16T04:38:49.533Z,37.50
2022-12-16T04:41:35.017Z,52.17
2022-12-16T04:44:20.412Z,38.83
2022-12-16T04:47:06.265Z,35.88
2022-12-16T04:49:51.770Z,46.28
2022-12-16T04:52:37.772Z,43.85
2022-12-16T04:55:24.253Z,46.05
2022-12-16T04:58:15.204Z,40.28
2022-12-16T05:01:01.093Z,45.42
2022-12-16T05:03:47.328Z,40.70
2022-12-16T05:06:33.061Z,40.95
2022-12-16T05:09:18.726Z,50.55
2022-12-16T05:12:04.186Z,43.63
2022-12-16T05:14:49.615Z,47.15
2022-12-16T05:17:35.147Z,44.67
2022-12-16T05:20:20.709Z,45.92
2022-12-16T05:23:06.126Z,45.08
2022-12-16T05:25:51.748Z,51.05
2022-12-16T05:28:37.333Z,39.15
2022-12-16T05:31:23.000Z,42.55
2022-12-16T05:34:08.316Z,43.95
2022-12-16T05:36:53.822Z,45.80
2022-12-16T05:39:39.372Z,42.20
2022-12-16T05:42:24.843Z,52.80
2022-12-16T05:45:10.347Z,38.08
2022-12-16T05:47:55.784Z,47.83
2022-12-16T05:50:41.135Z,56.67
2022-12-16T05:53:26.654Z,55.13
2022-12-16T05:56:12.156Z,54.10
2022-12-16T05:58:57.780Z,46.92
2022-12-16T06:01:43.299Z,48.85
2022-12-16T06:04:28.751Z,53.92
2022-12-16T06:07:14.162Z,51.45
2022-12-16T06:09:59.707Z,53.70
2022-12-16T06:12:45.175Z,53.22
2022-12-16T06:15:30.611Z,51.10
2022-12-16T06:18:26.564Z,45.40
2022-12-16T06:21:12.181Z,48.47
2022-12-16T06:23:57.661Z,42.33
2022-12-16T06:26:44.074Z,42.28
2022-12-16T06:29:29.668Z,44.95
2022-12-16T06:32:15.259Z,45.58
2022-12-16T06:35:00.616Z,44.83
2022-12-16T06:37:46.406Z,46.15
2022-12-16T06:40:31.931Z,47.47
2022-12-16T06:43:17.707Z,49.90
2022-12-16T06:46:03.416Z,43.72
2022-12-16T06:48:48.720Z,53.08
2022-12-16T06:51:34.368Z,50.13
2022-12-16T06:54:19.992Z,51.65
2022-12-16T06:57:05.661Z,52.85
2022-12-16T06:59:51.337Z,52.10
2022-12-16T07:02:36.978Z,51.05
2022-12-16T07:05:23.387Z,45.35
2022-12-16T07:08:09.945Z,43.90
2022-12-16T07:11:00.374Z,41.92
2022-12-16T07:13:54.316Z,52.08
2022-12-16T07:16:39.990Z,49.88
2022-12-16T07:19:25.438Z,45.15
2022-12-16T07:22:10.815Z,51.33
2022-12-16T07:24:56.242Z,44.28
2022-12-16T07:27:41.413Z,49.40
2022-12-16T07:30:27.237Z,46.10
2022-12-16T07:33:12.618Z,47.05
2022-12-16T07:36:12.464Z,44.65
2022-12-16T07:38:57.962Z,46.40
2022-12-16T07:41:43.343Z,48.72
2022-12-16T07:44:28.985Z,49.63
2022-12-16T07:47:14.205Z,46.05
2022-12-16T07:49:59.718Z,46.78
2022-12-16T07:52:45.361Z,43.75
2022-12-16T07:55:30.720Z,47.53
2022-12-16T07:58:16.316Z,51.58
2022-12-16T08:01:06.369Z,47.90
2022-12-16T08:03:54.902Z,46.20
2022-12-16T08:06:41.361Z,45.55
2022-12-16T08:09:26.638Z,46.72
2022-12-16T08:12:12.172Z,45.13
2022-12-16T08:14:57.732Z,45.42
2022-12-16T08:17:43.335Z,42.20
2022-12-16T08:20:28.980Z,42.72
2022-12-16T08:23:14.479Z,48.55
2022-12-16T08:25:59.928Z,47.88
2022-12-16T08:28:45.329Z,47.83
2022-12-16T08:31:30.805Z,43.65
2022-12-16T08:34:16.477Z,47.65
2022-12-16T08:37:01.657Z,41.72
2022-12-16T08:39:54.869Z,43.25
2022-12-16T08:42:52.464Z,41.90
2022-12-16T08:45:38.577Z,46.83
2022-12-16T08:48:23.919Z,43.13
2022-12-16T08:51:09.595Z,42.28
2022-12-16T08:53:55.121Z,43.25
2022-12-16T08:56:40.555Z,55.00
2022-12-16T08:59:26.062Z,45.97
2022-12-16T09:02:11.847Z,39.47
2022-12-16T09:04:57.614Z,42.83
2022-12-16T09:07:43.360Z,45.05
2022-12-16T09:10:30.459Z,46.05
2022-12-16T09:13:25.131Z,45.75
2022-12-16T09:16:15.725Z,35.67
2022-12-16T09:19:03.236Z,45.00
2022-12-16T09:21:48.712Z,43.22
2022-12-16T09:24:34.233Z,44.72
2022-12-16T09:27:20.029Z,41.47
2022-12-16T09:30:05.496Z,45.63
2022-12-16T09:32:50.962Z,45.92
2022-12-16T09:35:36.610Z,35.72
2022-12-16T09:38:21.994Z,39.90
2022-12-16T09:41:07.472Z,37.40
2022-12-16T09:44:02.680Z,44.28
2022-12-16T09:47:08.190Z,37.47
2022-12-16T09:50:06.782Z,34.60
2022-12-16T09:52:59.397Z,35.55
2022-12-16T09:56:01.125Z,32.70
2022-12-16T09:58:53.848Z,33.92
2022-12-16T10:01:41.555Z,35.90
2022-12-16T10:04:26.905Z,38.70
2022-12-16T10:07:17.211Z,37.45
2022-12-16T10:10:31.060Z,36.15
2022-12-16T10:13:41.337Z,38.35
2022-12-16T10:16:45.633Z,41.63
2022-12-16T10:19:49.919Z,36.75
2022-12-16T10:22:55.483Z,40.80
2022-12-16T10:26:07.439Z,42.10
2022-12-16T10:29:07.793Z,37.17
2022-12-16T10:31:55.879Z,38.92
2022-12-16T10:34:48.039Z,33.42
2022-12-16T10:37:39.188Z,33.58
2022-12-16T10:40:26.020Z,39.25
2022-12-16T10:43:40.144Z,35.40
2022-12-16T10:46:33.974Z,39.95
2022-12-16T10:49:19.418Z,36.40
2022-12-16T10:52:09.281Z,36.67
2022-12-16T10:55:01.163Z,35.33
2022-12-16T10:58:11.667Z,35.33
2022-12-16T11:01:09.087Z,35.28
2022-12-16T11:03:59.384Z,41.60
2022-12-16T11:06:58.017Z,42.85
2022-12-16T11:09:53.951Z,36.47
2022-12-16T11:12:47.424Z,35.92
2022-12-16T11:15:42.175Z,38.25
2022-12-16T11:18:39.385Z,39.67
2022-12-16T11:21:34.413Z,33.42
2022-12-16T11:24:28.659Z,36.42
2022-12-16T11:27:16.505Z,41.55
2022-12-16T11:30:23.369Z,32.90
2022-12-16T11:33:16.012Z,38.00
2022-12-16T11:36:06.397Z,33.72
2022-12-16T11:39:04.385Z,37.75
2022-12-16T11:42:01.991Z,36.03
2022-12-16T11:44:58.173Z,40.50
2022-12-16T11:47:46.435Z,38.08
2022-12-16T11:50:35.889Z,38.83
2022-12-16T11:53:24.022Z,31.13
2022-12-16T11:56:16.222Z,27.67
2022-12-16T11:59:07.259Z,31.45
2022-12-16T12:02:01.443Z,34.08
2022-12-16T12:04:46.947Z,36.75
2022-12-16T12:07:45.895Z,30.48
2022-12-16T12:10:53.183Z,42.80
2022-12-16T12:14:39.242Z,31.23
2022-12-16T12:17:33.668Z,30.77
2022-12-16T12:20:40.986Z,36.45
2022-12-16T12:23:43.749Z,33.65
2022-12-16T12:26:36.496Z,37.03
2022-12-16T12:29:30.716Z,40.03
2022-12-16T12:32:23.399Z,37.03
2022-12-16T12:35:40.997Z,30.83
2022-12-16T12:38:41.868Z,28.60
2022-12-16T12:41:47.156Z,29.08
2022-12-16T12:45:07.021Z,26.88
2022-12-16T12:48:10.342Z,31.17
2022-12-16T12:51:12.710Z,29.02
2022-12-16T12:54:12.324Z,31.30
2022-12-16T12:57:08.406Z,30.85
2022-12-16T13:00:15.698Z,26.58
2022-12-16T13:03:18.992Z,25.58
2022-12-16T13:06:04.794Z,31.27
2022-12-16T13:08:56.362Z,28.77
2022-12-16T13:11:43.109Z,32.28
2022-12-16T13:15:07.518Z,29.08
2022-12-16T13:18:18.821Z,26.48
2022-12-16T13:21:15.239Z,25.30
2022-12-16T13:24:04.412Z,33.03
2022-12-16T13:26:52.760Z,25.50
2022-12-16T13:29:49.818Z,27.00
2022-12-16T13:32:42.099Z,23.65
2022-12-16T13:35:27.685Z,24.10
2022-12-16T13:38:14.116Z,25.10
2022-12-16T13:41:22.384Z,30.60
2022-12-16T13:44:07.936Z,27.58
2022-12-16T13:47:06.323Z,28.45
2022-12-16T13:49:54.418Z,24.33
2022-12-16T13:53:07.121Z,25.88
2022-12-16T13:55:59.034Z,22.60
2022-12-16T13:59:06.666Z,29.33
2022-12-16T14:02:15.825Z,27.55
2022-12-16T14:05:06.075Z,27.73
2022-12-16T14:08:07.778Z,26.73
2022-12-16T14:11:00.035Z,25.98
2022-12-16T14:13:48.433Z,22.85
2022-12-16T14:17:10.866Z,24.27
2022-12-16T14:20:24.235Z,24.42
2022-12-16T14:23:55.288Z,22.35
2022-12-16T14:26:34.380Z,25.20
2022-12-16T14:29:21.962Z,23.25
2022-12-16T14:32:07.411Z,23.15
2022-12-16T14:34:56.405Z,22.15
2022-12-16T14:37:53.599Z,20.77
2022-12-16T14:40:40.235Z,24.65
2022-12-16T14:43:37.842Z,24.85
2022-12-16T14:46:23.808Z,24.88
2022-12-16T14:49:10.376Z,21.02
2022-12-16T14:51:56.941Z,24.60
2022-12-16T14:54:48.718Z,20.45
2022-12-16T14:57:37.785Z,25.88
2022-12-16T15:00:38.884Z,22.10
2022-12-16T15:03:43.027Z,30.20
2022-12-16T15:06:40.077Z,27.70
2022-12-16T15:09:30.007Z,25.13
2022-12-16T15:12:15.498Z,26.27
2022-12-16T15:15:01.189Z,25.48
2022-12-16T15:18:08.034Z,26.52
2022-12-16T15:20:56.617Z,28.40
2022-12-16T15:23:52.687Z,31.35
2022-12-16T15:26:46.667Z,25.23
2022-12-16T15:29:56.017Z,27.92
2022-12-16T15:32:44.064Z,27.20
2022-12-16T15:35:41.604Z,32.58
2022-12-16T15:38:42.145Z,31.10
2022-12-16T15:41:48.893Z,26.35
2022-12-16T15:44:45.794Z,26.88
2022-12-16T15:47:50.245Z,26.38
2022-12-16T15:50:39.047Z,24.05
2022-12-16T15:53:56.841Z,24.60
2022-12-16T15:57:00.800Z,30.13
2022-12-16T15:59:52.849Z,22.02
2022-12-16T16:02:49.551Z,22.95
2022-12-16T16:05:42.196Z,23.05
2022-12-16T16:08:29.769Z,26.75
2022-12-16T16:11:15.818Z,27.15
2022-12-16T16:14:07.202Z,27.88
2022-12-16T16:16:55.067Z,24.70
2022-12-16T16:19:45.165Z,23.75
2022-12-16T16:22:36.504Z,27.83
2022-12-16T16:25:22.112Z,25.25
2022-12-16T16:28:07.540Z,23.10
2022-12-16T16:30:53.157Z,26.15
2022-12-16T16:33:38.384Z,26.65
2022-12-16T16:36:33.997Z,30.55
2022-12-16T16:39:20.893Z,24.55
2022-12-16T16:42:06.502Z,28.05
2022-12-16T16:44:52.023Z,32.58
2022-12-16T16:47:37.632Z,27.67
2022-12-16T16:50:23.504Z,27.77
2022-12-16T16:53:09.239Z,29.67
2022-12-16T16:55:54.597Z,28.42
2022-12-16T16:58:47.336Z,24.50
2022-12-16T17:01:35.213Z,35.13
2022-12-16T17:04:21.100Z,29.10
2022-12-16T17:07:06.585Z,26.05
2022-12-16T17:09:52.146Z,21.90
2022-12-16T17:12:43.866Z,30.23
2022-12-16T17:15:43.038Z,25.88
2022-12-16T17:18:28.754Z,25.17
2022-12-16T17:21:14.528Z,24.65
2022-12-16T17:24:00.424Z,23.23
2022-12-16T17:26:45.954Z,20.98
2022-12-16T17:29:39.937Z,29.70
2022-12-16T17:32:26.030Z,28.48
2022-12-16T17:35:11.242Z,29.67
2022-12-16T17:37:57.211Z,24.05
2022-12-16T17:40:42.638Z,20.98
2022-12-16T17:43:28.168Z,21.98
2022-12-16T17:46:16.346Z,25.50
2022-12-16T17:49:02.220Z,23.10
2022-12-16T17:51:47.688Z,19.85
2022-12-16T17:54:33.268Z,24.05
2022-12-16T17:57:18.600Z,23.08
2022-12-16T18:00:04.134Z,28.25
2022-12-16T18:02:49.676Z,20.40
2022-12-16T18:05:42.482Z,21.65
2022-12-16T18:08:43.573Z,21.85
2022-12-16T18:11:29.151Z,22.85
2022-12-16T18:14:14.580Z,26.35
2022-12-16T18:17:00.067Z,21.70
2022-12-16T18:19:45.725Z,28.23
2022-12-16T18:22:31.197Z,22.60
2022-12-16T18:25:16.654Z,23.27
2022-12-16T18:28:02.020Z,26.77
2022-12-16T18:30:47.564Z,23.50
2022-12-16T18:33:33.427Z,22.80
2022-12-16T18:36:19.208Z,24.88
2022-12-16T18:39:04.718Z,23.77
2022-12-16T18:41:50.260Z,23.95
2022-12-16T18:44:35.829Z,20.58
2022-12-16T18:47:21.314Z,23.70
2022-12-16T18:50:06.574Z,20.60
2022-12-16T18:52:52.092Z,20.23
2022-12-16T18:55:37.484Z,21.38
2022-12-16T19:01:30.265Z,22.10
2022-12-16T19:04:16.207Z,22.40
2022-12-16T19:07:01.432Z,21.48
2022-12-16T19:09:46.991Z,25.92
2022-12-16T19:12:32.420Z,24.10
2022-12-16T19:15:17.845Z,20.08
2022-12-16T19:18:03.231Z,20.35
2022-12-16T19:20:48.770Z,18.70
2022-12-16T19:23:34.437Z,25.00
2022-12-16T19:26:20.447Z,29.98
2022-12-16T19:29:05.852Z,21.58
2022-12-16T19:31:51.858Z,25.70
2022-12-16T19:34:37.208Z,23.77
2022-12-16T19:37:22.613Z,24.17
2022-12-16T19:40:08.193Z,26.17
2022-12-16T19:42:55.768Z,23.80
2022-12-16T19:45:41.266Z,21.30
2022-12-16T19:48:26.643Z,25.17
2022-12-16T19:51:16.296Z,24.90
2022-12-16T19:54:03.712Z,20.02
2022-12-16T19:56:49.548Z,22.70
2022-12-16T19:59:34.962Z,22.95
2022-12-16T20:02:20.487Z,27.05
2022-12-16T20:05:06.205Z,26.60
2022-12-16T20:07:51.832Z,21.83
2022-12-16T20:10:37.367Z,21.17
2022-12-16T20:13:30.375Z,20.88
2022-12-16T20:16:26.543Z,27.48
2022-12-16T20:19:12.016Z,24.10
2022-12-16T20:21:59.716Z,23.60
2022-12-16T20:24:48.573Z,22.13
2022-12-16T20:27:34.077Z,21.58
2022-12-16T20:30:19.545Z,23.52
2022-12-16T20:33:06.074Z,21.02
2022-12-16T20:35:51.339Z,21.73
2022-12-16T20:38:36.810Z,22.85
2022-12-16T20:41:23.118Z,26.33
2022-12-16T20:44:09.538Z,27.67
2022-12-16T20:46:56.255Z,24.08
2022-12-16T20:49:42.159Z,22.48
2022-12-16T20:52:27.701Z,21.48
2022-12-16T20:55:13.103Z,22.45
2022-12-16T20:57:58.523Z,27.50
2022-12-16T21:00:44.075Z,22.45
2022-12-16T21:03:29.194Z,25.15
2022-12-16T21:06:14.731Z,23.80
2022-12-16T21:09:00.236Z,25.75
2022-12-16T21:11:45.346Z,21.20
2022-12-16T21:14:30.749Z,22.27
2022-12-16T21:17:18.703Z,21.80
2022-12-16T21:20:23.655Z,23.48
2022-12-16T21:23:20.540Z,21.40
2022-12-16T21:26:06.024Z,21.92
2022-12-16T21:28:51.782Z,23.02
2022-12-16T21:31:37.872Z,25.30
2022-12-16T21:34:23.620Z,24.73
2022-12-16T21:37:10.224Z,21.15
2022-12-16T21:39:56.668Z,29.75
2022-12-16T21:42:44.103Z,22.45
2022-12-16T21:45:30.789Z,29.55
2022-12-16T21:48:16.280Z,24.13
2022-12-16T21:51:01.704Z,30.73
2022-12-16T21:53:47.622Z,26.98
2022-12-16T21:56:33.425Z,28.23
2022-12-16T21:59:19.023Z,21.75
2022-12-16T22:02:04.917Z,32.63
2022-12-16T22:04:50.349Z,24.58
2022-12-16T22:07:35.819Z,23.67
2022-12-16T22:10:22.854Z,22.83
2022-12-16T22:13:08.334Z,26.15
2022-12-16T22:15:53.806Z,28.23
2022-12-16T22:18:44.783Z,28.67
2022-12-16T22:21:30.293Z,24.95
2022-12-16T22:24:15.746Z,27.83
2022-12-16T22:27:01.208Z,20.50
2022-12-16T22:29:46.848Z,25.13
2022-12-16T22:32:32.302Z,21.13
2022-12-16T22:35:17.683Z,22.65
2022-12-16T22:38:03.111Z,21.55
2022-12-16T22:40:48.605Z,31.20
2022-12-16T22:43:34.574Z,23.92
2022-12-16T22:46:21.081Z,26.02
2022-12-16T22:49:06.410Z,22.92
2022-12-16T22:51:52.439Z,25.20
2022-12-16T22:54:39.249Z,23.17
2022-12-16T22:57:24.742Z,28.17
2022-12-16T23:00:10.215Z,25.70
2022-12-16T23:02:55.715Z,23.08
2022-12-16T23:05:42.264Z,22.77
2022-12-16T23:08:27.684Z,20.83
2022-12-16T23:11:17.771Z,22.85
2022-12-16T23:14:03.236Z,26.30
2022-12-16T23:16:48.787Z,25.75
2022-12-16T23:19:34.259Z,27.45
2022-12-16T23:22:19.715Z,23.70
2022-12-16T23:25:05.192Z,22.90
2022-12-16T23:27:50.943Z,22.05
2022-12-16T23:30:37.539Z,22.88
2022-12-16T23:33:23.204Z,20.65
2022-12-16T23:36:08.609Z,24.00
2022-12-16T23:38:54.944Z,25.30
2022-12-16T23:41:41.864Z,24.30
2022-12-16T23:44:27.298Z,26.48
2022-12-16T23:47:12.655Z,21.48
2022-12-16T23:49:57.992Z,24.15
2022-12-16T23:52:43.307Z,23.92
2022-12-16T23:55:29.083Z,30.05
2022-12-16T23:58:22.638Z,23.75
